createdAt,value
2022-10-15T00:02:21.266Z,98533.78
2022-10-15T00:04:52.030Z,98540.50
2022-10-15T00:07:21.337Z,98547.81
2022-10-15T00:09:52.573Z,98561.00
2022-10-15T00:12:26.626Z,98559.22
2022-10-15T00:14:55.995Z,98556.56
2022-10-15T00:17:32.964Z,98563.28
2022-10-15T00:20:07.476Z,98561.56
2022-10-15T00:22:44.546Z,98559.75
2022-10-15T00:25:13.059Z,98572.03
2022-10-15T00:27:55.801Z,98582.66
2022-10-15T00:30:25.445Z,98571.38
2022-10-15T00:32:56.311Z,98569.13
2022-10-15T00:35:29.518Z,98571.25
2022-10-15T00:38:03.153Z,98573.91
2022-10-15T00:40:40.633Z,98545.25
2022-10-15T00:43:24.650Z,98556.75
2022-10-15T00:46:04.026Z,98558.50
2022-10-15T00:48:35.196Z,98558.19
2022-10-15T00:51:06.949Z,98560.50
2022-10-15T00:53:37.269Z,98555.78
2022-10-15T00:56:10.998Z,98550.06
2022-10-15T00:58:47.568Z,98520.06
2022-10-15T01:01:18.350Z,98527.13
2022-10-15T01:03:48.755Z,98521.16
2022-10-15T01:06:28.521Z,98512.88
2022-10-15T01:08:58.202Z,98507.06
2022-10-15T01:11:43.796Z,98499.34
2022-10-15T01:14:49.881Z,98505.81
2022-10-15T01:17:52.577Z,98499.81
2022-10-15T01:20:34.973Z,98496.34
2022-10-15T01:23:45.994Z,98487.38
2022-10-15T01:26:58.285Z,98484.72
2022-10-15T01:30:12.761Z,98484.31
2022-10-15T01:32:59.983Z,98485.13
2022-10-15T01:35:52.336Z,98497.53
2022-10-15T01:39:19.038Z,98503.66
2022-10-15T01:42:01.020Z,98502.94
2022-10-15T01:44:44.006Z,98497.72
2022-10-15T01:47:39.998Z,98493.63
2022-10-15T01:50:15.538Z,98487.47
2022-10-15T01:52:47.288Z,98464.44
2022-10-15T01:55:20.610Z,98478.06
2022-10-15T01:57:54.339Z,98466.91
2022-10-15T02:00:28.705Z,98473.06
2022-10-15T02:03:07.842Z,98463.63
2022-10-15T02:05:47.093Z,98423.69
2022-10-15T02:08:21.629Z,98449.88
2022-10-15T02:11:16.783Z,98441.34
2022-10-15T02:14:12.800Z,98436.84
2022-10-15T02:17:15.731Z,98433.47
2022-10-15T02:20:06.928Z,98447.41
2022-10-15T02:22:47.553Z,98445.75
2022-10-15T02:25:22.808Z,98450.50
2022-10-15T02:28:01.899Z,98430.09
2022-10-15T02:30:45.258Z,98446.47
2022-10-15T02:33:19.713Z,98465.63
2022-10-15T02:35:54.457Z,98461.63
2022-10-15T02:38:28.510Z,98466.13
2022-10-15T02:41:05.612Z,98462.97
2022-10-15T02:46:28.560Z,98459.69
2022-10-15T02:48:58.858Z,98443.63
2022-10-15T02:51:36.379Z,98434.72
2022-10-15T02:54:13.324Z,98435.56
2022-10-15T02:56:46.987Z,98414.13
2022-10-15T02:59:19.702Z,98444.16
2022-10-15T03:01:53.622Z,98439.84
2022-10-15T03:04:29.379Z,98437.59
2022-10-15T03:07:06.642Z,98431.75
2022-10-15T03:09:42.902Z,98372.66
2022-10-15T03:12:19.274Z,98429.19
2022-10-15T03:14:56.195Z,98436.34
2022-10-15T03:17:34.435Z,98423.66
2022-10-15T03:20:06.300Z,98427.22
2022-10-15T03:22:39.960Z,98428.97
2022-10-15T03:25:11.578Z,98423.72
2022-10-15T03:27:42.826Z,98415.09
2022-10-15T03:30:34.199Z,98419.94
2022-10-15T03:33:05.158Z,98427.31
2022-10-15T03:35:44.904Z,98436.03
2022-10-15T03:38:24.424Z,98422.53
2022-10-15T03:41:07.161Z,98436.94
2022-10-15T03:43:43.215Z,98430.16
2022-10-15T03:46:16.948Z,98397.88
2022-10-15T03:48:54.187Z,98410.38
2022-10-15T03:51:34.707Z,98428.75
2022-10-15T03:54:11.791Z,98428.72
2022-10-15T03:56:51.321Z,98435.41
2022-10-15T03:59:51.479Z,98438.69
2022-10-15T04:02:28.265Z,98424.34
2022-10-15T04:05:04.450Z,98436.09
2022-10-15T04:07:34.303Z,98430.38
2022-10-15T04:10:08.849Z,98422.22
2022-10-15T04:12:41.210Z,98437.47
2022-10-15T04:15:27.342Z,98445.66
2022-10-15T04:18:06.496Z,98441.25
2022-10-15T04:20:40.179Z,98436.97
2022-10-15T04:23:25.670Z,98429.88
2022-10-15T04:26:28.358Z,98430.06
2022-10-15T04:28:59.351Z,98412.47
2022-10-15T04:31:33.610Z,98428.13
2022-10-15T04:34:21.501Z,98428.00
2022-10-15T04:36:53.836Z,98421.13
2022-10-15T04:39:25.701Z,98414.59
2022-10-15T04:41:56.932Z,98422.09
2022-10-15T04:44:37.264Z,98411.06
2022-10-15T04:47:15.606Z,98406.41
2022-10-15T04:49:53.314Z,98409.69
2022-10-15T04:52:47.868Z,98393.00
2022-10-15T04:55:29.870Z,98401.53
2022-10-15T04:58:05.445Z,98412.16
2022-10-15T05:00:35.658Z,98410.84
2022-10-15T05:03:18.954Z,98417.06
2022-10-15T05:06:28.696Z,98401.66
2022-10-15T05:09:16.795Z,98422.28
2022-10-15T05:11:55.915Z,98407.38
2022-10-15T05:14:26.418Z,98415.28
2022-10-15T05:17:15.904Z,98406.59
2022-10-15T05:19:53.408Z,98415.50
2022-10-15T05:22:32.437Z,98423.19
2022-10-15T05:25:14.204Z,98427.47
2022-10-15T05:27:46.591Z,98422.75
2022-10-15T05:30:17.531Z,98424.88
2022-10-15T05:32:58.097Z,98432.19
2022-10-15T05:35:30.389Z,98411.00
2022-10-15T05:38:13.542Z,98433.63
2022-10-15T05:40:52.642Z,98417.38
2022-10-15T05:43:37.358Z,98435.31
2022-10-15T05:46:17.544Z,98427.97
2022-10-15T05:49:09.468Z,98414.16
2022-10-15T05:51:56.776Z,98434.13
2022-10-15T05:54:44.514Z,98433.53
2022-10-15T05:57:22.620Z,98406.22
2022-10-15T05:59:56.463Z,98427.41
2022-10-15T06:02:27.444Z,98419.91
2022-10-15T06:04:58.719Z,98427.50
2022-10-15T06:07:29.192Z,98433.16
2022-10-15T06:10:16.405Z,98447.47
2022-10-15T06:12:46.554Z,98443.88
2022-10-15T06:15:16.808Z,98441.22
2022-10-15T06:17:47.265Z,98474.56
2022-10-15T06:20:20.960Z,98462.97
2022-10-15T06:22:48.953Z,98444.66
2022-10-15T06:25:32.050Z,98457.88
2022-10-15T06:28:15.445Z,98462.66
2022-10-15T06:30:56.465Z,98464.41
2022-10-15T06:33:29.884Z,98451.31
2022-10-15T06:36:17.358Z,98470.78
2022-10-15T06:38:52.999Z,98472.22
2022-10-15T06:41:26.461Z,98471.28
2022-10-15T06:44:02.366Z,98465.09
2022-10-15T06:46:44.129Z,98456.25
2022-10-15T06:49:15.276Z,98465.78
2022-10-15T06:54:30.964Z,98451.06
2022-10-15T06:57:11.027Z,98472.47
2022-10-15T06:59:42.262Z,98472.91
2022-10-15T07:02:14.127Z,98483.16
2022-10-15T07:04:44.074Z,98482.34
2022-10-15T07:07:22.737Z,98481.75
2022-10-15T07:09:53.848Z,98484.28
2022-10-15T07:12:34.013Z,98488.81
2022-10-15T07:15:05.213Z,98488.88
2022-10-15T07:20:24.533Z,98480.50
2022-10-15T07:23:11.703Z,98475.69
2022-10-15T07:25:42.825Z,98478.94
2022-10-15T07:28:14.498Z,98472.41
2022-10-15T07:30:46.581Z,98478.97
2022-10-15T07:33:18.893Z,98487.53
2022-10-15T07:35:59.915Z,98483.19
2022-10-15T07:41:19.904Z,98495.28
2022-10-15T07:43:57.037Z,98489.81
2022-10-15T07:46:27.191Z,98487.84
2022-10-15T07:48:59.975Z,98481.75
2022-10-15T07:51:33.543Z,98485.94
2022-10-15T07:54:07.987Z,98482.38
2022-10-15T07:56:45.738Z,98480.81
2022-10-15T07:59:19.662Z,98497.63
2022-10-15T08:01:53.891Z,98500.09
2022-10-15T08:04:27.471Z,98498.91
2022-10-15T08:07:01.814Z,98492.25
2022-10-15T08:09:35.192Z,98482.75
2022-10-15T08:12:17.051Z,98494.16
2022-10-15T08:14:44.737Z,98491.00
2022-10-15T08:17:15.367Z,98485.47
2022-10-15T08:19:55.970Z,98486.97
2022-10-15T08:22:27.449Z,98510.22
2022-10-15T08:25:12.914Z,98501.91
2022-10-15T08:27:46.454Z,98490.16
2022-10-15T08:30:16.284Z,98499.69
2022-10-15T08:32:46.431Z,98499.88
2022-10-15T08:35:20.309Z,98503.03
2022-10-15T08:37:51.560Z,98493.06
2022-10-15T08:40:23.931Z,98495.03
2022-10-15T08:42:53.401Z,98513.22
2022-10-15T08:45:35.471Z,98514.72
2022-10-15T08:48:16.899Z,98512.88
2022-10-15T08:50:54.118Z,98507.16
2022-10-15T08:53:24.877Z,98514.88
2022-10-15T08:56:15.601Z,98514.81
2022-10-15T08:59:23.843Z,98519.19
2022-10-15T09:02:24.613Z,98511.81
2022-10-15T09:05:32.936Z,98515.72
2022-10-15T09:08:32.214Z,98511.31
2022-10-15T09:11:46.059Z,98510.28
2022-10-15T09:14:25.924Z,98484.91
2022-10-15T09:16:59.936Z,98512.09
2022-10-15T09:19:38.021Z,98512.72
2022-10-15T09:22:23.024Z,98499.28
2022-10-15T09:24:56.653Z,98496.47
2022-10-15T09:27:43.354Z,98499.97
2022-10-15T09:30:36.935Z,98499.16
2022-10-15T09:33:40.265Z,98513.34
2022-10-15T09:36:59.596Z,98515.47
2022-10-15T09:39:44.867Z,98503.34
2022-10-15T09:42:40.009Z,98504.66
2022-10-15T09:45:16.589Z,98502.81
2022-10-15T09:47:50.973Z,98507.22
2022-10-15T09:50:28.467Z,98508.22
2022-10-15T09:53:57.676Z,98504.28
2022-10-15T09:56:38.440Z,98498.25
2022-10-15T09:59:14.268Z,98493.88
2022-10-15T10:01:44.854Z,98498.31
2022-10-15T10:04:24.977Z,98489.81
2022-10-15T10:07:06.672Z,98471.66
2022-10-15T10:10:03.244Z,98482.66
2022-10-15T10:12:40.897Z,98490.56
2022-10-15T10:15:44.336Z,98496.06
2022-10-15T10:18:27.347Z,98494.69
2022-10-15T10:21:39.439Z,98479.34
2022-10-15T10:24:35.326Z,98479.22
2022-10-15T10:27:26.798Z,98490.09
2022-10-15T10:30:13.129Z,98473.97
2022-10-15T10:32:52.924Z,98487.63
2022-10-15T10:35:25.302Z,98484.19
2022-10-15T10:37:59.150Z,98487.25
2022-10-15T10:40:37.534Z,98478.19
2022-10-15T10:43:29.844Z,98479.75
2022-10-15T10:46:21.484Z,98487.19
2022-10-15T10:49:03.202Z,98481.19
2022-10-15T10:51:51.417Z,98484.47
2022-10-15T10:54:22.578Z,98479.88
2022-10-15T10:56:54.934Z,98441.22
2022-10-15T10:59:48.767Z,98479.28
2022-10-15T11:02:21.945Z,98478.31
2022-10-15T11:04:53.661Z,98459.13
2022-10-15T11:07:34.077Z,98455.66
2022-10-15T11:10:29.237Z,98448.28
2022-10-15T11:13:27.573Z,98448.09
2022-10-15T11:16:43.886Z,98454.94
2022-10-15T11:19:54.653Z,98447.97
2022-10-15T11:23:17.909Z,98451.00
2022-10-15T11:26:09.986Z,98445.50
2022-10-15T11:29:05.464Z,98447.72
2022-10-15T11:32:16.532Z,98446.81
2022-10-15T11:35:00.501Z,98435.31
2022-10-15T11:38:08.376Z,98424.72
2022-10-15T11:44:36.577Z,98418.88
2022-10-15T11:47:40.060Z,98413.56
2022-10-15T11:51:01.992Z,98424.13
2022-10-15T11:54:17.592Z,98430.06
2022-10-15T11:56:53.246Z,98409.22
2022-10-15T11:59:36.592Z,98429.25
2022-10-15T12:02:22.373Z,98429.47
2022-10-15T12:04:57.432Z,98423.44
2022-10-15T12:07:41.940Z,98424.38
2022-10-15T12:11:00.097Z,98425.84
2022-10-15T12:13:48.868Z,98409.44
2022-10-15T12:16:47.649Z,98398.00
2022-10-15T12:19:31.590Z,98405.25
2022-10-15T12:22:11.483Z,98403.03
2022-10-15T12:24:49.085Z,98394.53
2022-10-15T12:27:43.326Z,98387.28
2022-10-15T12:30:19.491Z,98391.06
2022-10-15T12:32:52.018Z,98388.72
2022-10-15T12:35:42.220Z,98388.72
2022-10-15T12:38:35.421Z,98386.28
2022-10-15T12:41:14.556Z,98378.38
2022-10-15T12:44:17.204Z,98378.91
2022-10-15T12:46:53.232Z,98381.91
2022-10-15T12:49:41.282Z,98378.00
2022-10-15T12:52:52.941Z,98375.38
2022-10-15T12:55:39.564Z,98372.56
2022-10-15T12:58:34.418Z,98378.63
2022-10-15T13:01:26.931Z,98370.94
2022-10-15T13:04:02.704Z,98369.31
2022-10-15T13:06:42.406Z,98368.25
2022-10-15T13:09:32.225Z,98356.91
2022-10-15T13:12:03.215Z,98359.25
2022-10-15T13:14:40.625Z,98361.31
2022-10-15T13:17:41.948Z,98360.63
2022-10-15T13:20:41.960Z,98349.16
2022-10-15T13:23:36.684Z,98352.72
2022-10-15T13:26:40.575Z,98360.59
2022-10-15T13:29:22.338Z,98364.88
2022-10-15T13:32:11.285Z,98345.78
2022-10-15T13:34:45.114Z,98363.81
2022-10-15T13:37:23.383Z,98372.19
2022-10-15T13:39:57.761Z,98374.06
2022-10-15T13:42:41.129Z,98375.78
2022-10-15T13:45:20.073Z,98365.28
2022-10-15T13:47:57.557Z,98386.59
2022-10-15T13:50:33.524Z,98376.53
2022-10-15T13:56:40.359Z,98376.59
2022-10-15T13:59:10.772Z,98375.41
2022-10-15T14:01:47.637Z,98367.31
2022-10-15T14:04:21.073Z,98355.72
2022-10-15T14:07:28.907Z,98348.13
2022-10-15T14:10:02.831Z,98353.47
2022-10-15T14:16:06.871Z,98350.56
2022-10-15T14:18:48.129Z,98360.09
2022-10-15T14:21:21.754Z,98359.88
2022-10-15T14:24:10.103Z,98352.22
2022-10-15T14:26:51.585Z,98364.75
2022-10-15T14:29:57.489Z,98361.72
2022-10-15T14:32:36.305Z,98359.28
2022-10-15T14:35:15.346Z,98372.19
2022-10-15T14:37:48.963Z,98363.63
2022-10-15T14:40:23.800Z,98372.31
2022-10-15T14:43:19.286Z,98364.34
2022-10-15T14:46:02.813Z,98360.91
2022-10-15T14:48:42.842Z,98363.88
2022-10-15T14:51:37.521Z,98364.34
2022-10-15T14:54:15.090Z,98363.44
2022-10-15T14:56:51.557Z,98362.22
2022-10-15T14:59:23.769Z,98350.03
2022-10-15T15:02:17.052Z,98347.88
2022-10-15T15:04:55.924Z,98342.03
2022-10-15T15:07:27.442Z,98318.09
2022-10-15T15:10:06.350Z,98343.72
2022-10-15T15:12:43.763Z,98349.22
2022-10-15T15:15:23.459Z,98355.03
2022-10-15T15:17:57.251Z,98350.91
2022-10-15T15:20:30.160Z,98357.31
2022-10-15T15:23:04.250Z,98360.63
2022-10-15T15:25:39.692Z,98358.75
2022-10-15T15:28:24.765Z,98356.50
2022-10-15T15:31:11.232Z,98370.13
2022-10-15T15:33:42.253Z,98363.19
2022-10-15T15:36:12.584Z,98379.03
2022-10-15T15:38:46.821Z,98372.50
2022-10-15T15:41:29.009Z,98373.84
2022-10-15T15:44:05.170Z,98393.75
2022-10-15T15:46:36.663Z,98387.03
2022-10-15T15:49:12.800Z,98391.91
2022-10-15T15:51:44.398Z,98400.44
2022-10-15T15:54:13.392Z,98410.38
2022-10-15T15:59:22.807Z,98416.44
2022-10-15T16:01:56.328Z,98414.25
2022-10-15T16:04:32.829Z,98409.81
2022-10-15T16:07:22.784Z,98425.53
2022-10-15T16:12:37.982Z,98424.84
2022-10-15T16:15:15.725Z,98430.75
2022-10-15T16:17:48.905Z,98438.72
2022-10-15T16:20:21.640Z,98451.09
2022-10-15T16:22:56.303Z,98450.28
2022-10-15T16:25:32.865Z,98449.03
2022-10-15T16:28:03.073Z,98460.47
2022-10-15T16:30:37.008Z,98463.97
2022-10-15T16:35:39.731Z,98471.38
2022-10-15T16:38:09.158Z,98470.56
2022-10-15T16:40:52.024Z,98478.19
2022-10-15T16:43:22.624Z,98468.00
2022-10-15T16:46:02.309Z,98471.00
2022-10-15T16:48:34.352Z,98476.03
2022-10-15T16:51:04.266Z,98490.22
2022-10-15T16:53:42.336Z,98483.66
2022-10-15T16:56:17.091Z,98487.88
2022-10-15T16:58:56.823Z,98490.59
2022-10-15T17:01:31.018Z,98493.34
2022-10-15T17:04:06.226Z,98501.41
2022-10-15T17:06:37.598Z,98502.59
2022-10-15T17:11:59.312Z,98502.75
2022-10-15T17:14:29.900Z,98508.16
2022-10-15T17:17:01.716Z,98495.25
2022-10-15T17:19:35.580Z,98513.91
2022-10-15T17:22:08.508Z,98506.53
2022-10-15T17:24:41.148Z,98517.22
2022-10-15T17:27:12.689Z,98527.50
2022-10-15T17:29:52.282Z,98532.09
2022-10-15T17:32:25.448Z,98537.16
2022-10-15T17:35:03.746Z,98536.34
2022-10-15T17:37:38.378Z,98537.66
2022-10-15T17:40:16.098Z,98535.34
2022-10-15T17:42:47.972Z,98541.75
2022-10-15T17:48:04.109Z,98539.91
2022-10-15T17:50:36.416Z,98540.47
2022-10-15T17:53:07.073Z,98524.31
2022-10-15T17:58:22.014Z,98552.31
2022-10-15T18:01:04.674Z,98554.69
2022-10-15T18:03:45.194Z,98560.94
2022-10-15T18:06:23.529Z,98560.25
2022-10-15T18:09:01.700Z,98559.34
2022-10-15T18:11:37.102Z,98567.00
2022-10-15T18:14:10.596Z,98574.59
2022-10-15T18:16:43.666Z,98570.84
2022-10-15T18:19:20.369Z,98581.72
2022-10-15T18:21:59.593Z,98580.56
2022-10-15T18:24:28.734Z,98587.19
2022-10-15T18:27:00.628Z,98594.03
2022-10-15T18:29:40.402Z,98592.72
2022-10-15T18:32:11.948Z,98595.72
2022-10-15T18:34:47.432Z,98603.66
2022-10-15T18:37:25.293Z,98602.22
2022-10-15T18:40:02.969Z,98605.81
2022-10-15T18:42:31.545Z,98616.94
2022-10-15T18:45:01.074Z,98611.72
2022-10-15T18:47:32.294Z,98616.19
2022-10-15T18:50:02.950Z,98613.53
2022-10-15T18:52:39.761Z,98609.13
2022-10-15T18:55:20.523Z,98612.59
2022-10-15T18:57:53.606Z,98612.25
2022-10-15T19:00:25.233Z,98604.09
2022-10-15T19:02:59.314Z,98626.63
2022-10-15T19:08:21.528Z,98633.94
2022-10-15T19:10:49.275Z,98633.84
2022-10-15T19:13:17.579Z,98631.25
2022-10-15T19:15:48.841Z,98637.19
2022-10-15T19:18:17.757Z,98636.00
2022-10-15T19:20:55.505Z,98641.72
2022-10-15T19:23:25.934Z,98656.41
2022-10-15T19:25:57.818Z,98646.31
2022-10-15T19:28:26.898Z,98651.22
2022-10-15T19:30:57.729Z,98654.13
2022-10-15T19:33:29.409Z,98661.28
2022-10-15T19:38:46.967Z,98666.03
2022-10-15T19:41:27.666Z,98667.47
2022-10-15T19:44:02.470Z,98641.97
2022-10-15T19:46:36.400Z,98649.72
2022-10-15T19:49:17.023Z,98669.13
2022-10-15T19:51:50.616Z,98659.13
2022-10-15T19:54:20.570Z,98672.66
2022-10-15T19:56:48.455Z,98689.16
2022-10-15T19:59:27.887Z,98690.63
2022-10-15T20:01:58.859Z,98692.03
2022-10-15T20:07:25.846Z,98706.78
2022-10-15T20:09:56.698Z,98716.25
2022-10-15T20:12:30.244Z,98713.38
2022-10-15T20:15:00.830Z,98712.34
2022-10-15T20:17:40.268Z,98694.19
2022-10-15T20:20:10.215Z,98715.13
2022-10-15T20:22:44.062Z,98716.97
2022-10-15T20:25:21.378Z,98715.31
2022-10-15T20:27:54.906Z,98723.31
2022-10-15T20:30:31.402Z,98724.44
2022-10-15T20:35:50.923Z,98730.38
2022-10-15T20:41:24.391Z,98729.06
2022-10-15T20:44:05.726Z,98738.28
2022-10-15T20:46:48.986Z,98732.47
2022-10-15T20:49:33.433Z,98739.13
2022-10-15T20:52:04.269Z,98741.59
2022-10-15T20:54:32.574Z,98745.69
2022-10-15T20:57:00.856Z,98750.97
2022-10-15T20:59:33.038Z,98758.66
2022-10-15T21:02:07.085Z,98760.41
2022-10-15T21:04:40.477Z,98766.66
2022-10-15T21:07:16.597Z,98765.47
2022-10-15T21:09:50.970Z,98771.41
2022-10-15T21:12:24.569Z,98769.56
2022-10-15T21:15:03.020Z,98749.84
2022-10-15T21:17:43.417Z,98776.22
2022-10-15T21:20:30.252Z,98781.56
2022-10-15T21:23:18.546Z,98780.56
2022-10-15T21:25:55.465Z,98760.34
2022-10-15T21:28:26.635Z,98753.94
2022-10-15T21:31:09.137Z,98782.69
2022-10-15T21:33:38.333Z,98786.78
2022-10-15T21:36:36.788Z,98765.13
2022-10-15T21:39:08.713Z,98789.81
2022-10-15T21:41:39.131Z,98785.03
2022-10-15T21:44:18.275Z,98793.19
2022-10-15T21:46:52.172Z,98797.38
2022-10-15T21:49:29.860Z,98799.09
2022-10-15T21:52:10.016Z,98794.72
2022-10-15T21:54:40.442Z,98793.41
2022-10-15T21:57:11.987Z,98803.34
2022-10-15T21:59:43.166Z,98801.78
2022-10-15T22:05:10.081Z,98798.69
2022-10-15T22:07:46.837Z,98811.63
2022-10-15T22:10:24.172Z,98812.75
2022-10-15T22:12:54.215Z,98813.75
2022-10-15T22:15:31.808Z,98812.75
2022-10-15T22:18:05.673Z,98809.22
2022-10-15T22:20:39.530Z,98813.78
2022-10-15T22:23:11.298Z,98812.94
2022-10-15T22:25:44.163Z,98813.53
2022-10-15T22:28:21.631Z,98818.81
2022-10-15T22:30:49.361Z,98821.66
2022-10-15T22:33:19.277Z,98792.13
2022-10-15T22:35:53.882Z,98815.91
2022-10-15T22:38:25.114Z,98828.31
2022-10-15T22:40:56.108Z,98827.19
2022-10-15T22:43:35.593Z,98828.31
2022-10-15T22:46:06.362Z,98827.63
2022-10-15T22:48:38.840Z,98822.91
2022-10-15T22:51:10.164Z,98756.19
2022-10-15T22:53:40.386Z,98828.31
2022-10-15T22:56:17.795Z,98826.19
2022-10-15T22:58:48.276Z,98820.31
2022-10-15T23:01:20.589Z,98817.25
2022-10-15T23:03:58.025Z,98812.94
2022-10-15T23:06:26.405Z,98825.75
2022-10-15T23:08:56.350Z,98816.50
2022-10-15T23:11:38.474Z,98819.16
2022-10-15T23:14:16.962Z,98818.06
2022-10-15T23:16:46.189Z,98819.72
2022-10-15T23:19:16.650Z,98827.56
2022-10-15T23:22:05.066Z,98814.41
2022-10-15T23:24:36.355Z,98829.34
2022-10-15T23:27:07.531Z,98828.69
2022-10-15T23:29:43.735Z,98819.78
2022-10-15T23:32:14.070Z,98829.88
2022-10-15T23:34:45.009Z,98834.22
2022-10-15T23:37:28.038Z,98830.16
2022-10-15T23:40:01.791Z,98830.88
2022-10-15T23:42:44.950Z,98838.16
2022-10-15T23:45:16.413Z,98835.06
2022-10-15T23:47:46.792Z,98841.72
2022-10-15T23:50:14.849Z,98839.28
2022-10-15T23:52:42.878Z,98844.34
2022-10-15T23:55:10.417Z,98852.78
2022-10-15T23:57:41.193Z,98850.41
